createdAt,value
2017-09-27T00:00:37.465Z,13.75
2017-09-27T00:02:30.455Z,13.70
2017-09-27T00:03:30.513Z,13.71
2017-09-27T00:05:23.525Z,13.68
2017-09-27T00:06:23.562Z,13.68
2017-09-27T00:08:16.559Z,13.74
2017-09-27T00:09:16.612Z,13.77
2017-09-27T00:11:09.631Z,13.71
2017-09-27T00:12:09.674Z,13.77
2017-09-27T00:14:02.683Z,13.72
2017-09-27T00:15:02.726Z,13.74
2017-09-27T00:16:55.717Z,13.71
2017-09-27T00:17:55.779Z,13.68
2017-09-27T00:19:48.807Z,13.67
2017-09-27T00:20:48.839Z,13.72
2017-09-27T00:22:41.838Z,13.67
2017-09-27T00:23:41.888Z,13.62
2017-09-27T00:25:34.896Z,13.53
2017-09-27T00:26:34.939Z,13.49
2017-09-27T00:28:27.932Z,13.53
2017-09-27T00:29:28.005Z,13.53
2017-09-27T00:31:21.011Z,13.57
2017-09-27T00:32:21.049Z,13.63
2017-09-27T00:34:14.058Z,13.56
2017-09-27T00:35:14.097Z,13.59
2017-09-27T00:37:07.096Z,13.54
2017-09-27T00:38:07.159Z,13.49
2017-09-27T00:40:00.165Z,13.41
2017-09-27T00:41:00.208Z,13.50
2017-09-27T00:42:53.201Z,13.41
2017-09-27T00:43:53.257Z,13.52
2017-09-27T00:45:46.271Z,13.53
2017-09-27T00:46:46.312Z,13.53
2017-09-27T00:48:39.304Z,13.53
2017-09-27T00:49:39.369Z,13.44
2017-09-27T00:51:32.375Z,13.62
2017-09-27T00:52:32.417Z,13.49
2017-09-27T00:54:25.428Z,13.54
2017-09-27T00:55:25.471Z,13.56
2017-09-27T00:57:18.457Z,13.56
2017-09-27T00:58:18.518Z,13.54
2017-09-27T01:00:11.525Z,13.60
2017-09-27T01:01:11.567Z,13.63
2017-09-27T01:03:04.558Z,13.62
2017-09-27T01:04:04.618Z,13.68
2017-09-27T01:05:57.626Z,13.53
2017-09-27T01:06:57.665Z,13.56
2017-09-27T01:08:50.657Z,13.57
2017-09-27T01:09:50.716Z,13.52
2017-09-27T01:11:43.733Z,13.53
2017-09-27T01:12:43.770Z,13.46
2017-09-27T01:14:36.784Z,13.38
2017-09-27T01:15:36.823Z,13.39
2017-09-27T01:17:29.825Z,13.38
2017-09-27T01:18:29.884Z,13.39
2017-09-27T01:20:22.904Z,13.46
2017-09-27T01:21:22.948Z,13.44
2017-09-27T01:23:15.935Z,13.46
2017-09-27T01:24:15.999Z,13.41
2017-09-27T01:26:09.013Z,13.47
2017-09-27T01:27:09.058Z,13.49
2017-09-27T01:29:02.046Z,13.39
2017-09-27T01:30:02.105Z,13.42
2017-09-27T01:31:55.114Z,13.42
2017-09-27T01:32:55.154Z,13.42
2017-09-27T01:34:48.165Z,13.44
2017-09-27T01:35:48.206Z,13.44
2017-09-27T01:37:41.195Z,13.33
2017-09-27T01:38:41.253Z,13.46
2017-09-27T01:40:34.276Z,13.50
2017-09-27T01:41:34.315Z,13.53
2017-09-27T01:43:27.297Z,13.56
2017-09-27T01:44:27.359Z,13.62
2017-09-27T01:46:20.373Z,13.53
2017-09-27T01:47:20.416Z,13.47
2017-09-27T01:49:13.406Z,13.47
2017-09-27T01:50:13.468Z,13.53
2017-09-27T01:52:06.476Z,13.41
2017-09-27T01:53:06.517Z,13.39
2017-09-27T01:54:59.535Z,13.44
2017-09-27T01:55:59.568Z,13.42
2017-09-27T01:57:52.559Z,13.50
2017-09-27T01:58:52.618Z,13.38
2017-09-27T02:00:45.626Z,13.52
2017-09-27T02:01:45.669Z,13.56
2017-09-27T02:03:38.656Z,13.42
2017-09-27T02:04:38.721Z,13.49
2017-09-27T02:06:31.730Z,13.33
2017-09-27T02:07:31.771Z,13.47
2017-09-27T02:09:24.763Z,13.38
2017-09-27T02:10:24.823Z,13.39
2017-09-27T02:12:17.836Z,13.44
2017-09-27T02:13:17.872Z,13.44
2017-09-27T02:15:10.883Z,13.49
2017-09-27T02:16:10.923Z,13.44
2017-09-27T02:18:03.917Z,13.49
2017-09-27T02:19:03.985Z,13.47
2017-09-27T02:20:56.994Z,13.42
2017-09-27T02:21:57.034Z,13.46
2017-09-27T02:23:50.025Z,13.41
2017-09-27T02:24:50.088Z,13.38
2017-09-27T02:26:43.094Z,13.28
2017-09-27T02:27:43.134Z,13.28
2017-09-27T02:29:36.128Z,13.25
2017-09-27T02:30:36.184Z,13.22
2017-09-27T02:32:29.200Z,13.28
2017-09-27T02:33:29.234Z,13.22
2017-09-27T02:35:22.241Z,13.22
2017-09-27T02:36:22.288Z,13.18
2017-09-27T02:38:15.272Z,13.19
2017-09-27T02:39:15.329Z,13.27
2017-09-27T02:41:08.338Z,13.30
2017-09-27T02:42:08.380Z,13.39
2017-09-27T02:44:01.368Z,13.46
2017-09-27T02:45:01.434Z,13.44
2017-09-27T02:46:54.439Z,13.47
2017-09-27T02:47:54.478Z,13.38
2017-09-27T02:49:47.468Z,13.30
2017-09-27T02:50:47.534Z,13.28
2017-09-27T02:52:40.554Z,13.31
2017-09-27T02:53:40.591Z,13.31
2017-09-27T02:55:33.600Z,13.38
2017-09-27T02:56:33.640Z,13.38
2017-09-27T02:58:26.631Z,13.42
2017-09-27T02:59:26.689Z,13.42
2017-09-27T03:01:19.697Z,13.42
2017-09-27T03:02:19.737Z,13.47
2017-09-27T03:04:12.731Z,13.47
2017-09-27T03:05:12.793Z,13.38
2017-09-27T03:07:05.835Z,13.38
2017-09-27T03:08:05.852Z,13.47
2017-09-27T03:09:58.853Z,13.46
2017-09-27T03:10:58.909Z,13.41
2017-09-27T03:12:51.936Z,13.38
2017-09-27T03:13:51.967Z,13.42
2017-09-27T03:15:44.979Z,13.49
2017-09-27T03:16:45.019Z,13.49
2017-09-27T03:18:38.012Z,13.44
2017-09-27T03:19:38.074Z,13.49
2017-09-27T03:21:31.086Z,13.41
2017-09-27T03:22:31.127Z,13.42
2017-09-27T03:24:24.114Z,13.42
2017-09-27T03:25:24.175Z,13.47
2017-09-27T03:27:17.189Z,13.47
2017-09-27T03:28:17.229Z,13.41
2017-09-27T03:30:10.219Z,13.39
2017-09-27T03:31:10.281Z,13.41
2017-09-27T03:33:03.282Z,13.37
2017-09-27T03:34:03.323Z,13.41
2017-09-27T03:35:57.840Z,13.30
2017-09-27T03:36:57.881Z,13.27
2017-09-27T03:38:50.872Z,13.52
2017-09-27T03:39:50.930Z,13.46
2017-09-27T03:41:44.446Z,13.49
2017-09-27T03:42:44.486Z,13.35
2017-09-27T03:44:37.479Z,13.52
2017-09-27T03:45:37.593Z,13.42
2017-09-27T03:47:30.553Z,13.41
2017-09-27T03:48:30.592Z,13.42
2017-09-27T03:50:24.092Z,13.49
2017-09-27T03:51:24.148Z,13.52
2017-09-27T03:53:17.157Z,13.47
2017-09-27T03:54:17.198Z,13.39
2017-09-27T03:56:10.215Z,13.52
2017-09-27T03:57:10.247Z,13.53
2017-09-27T03:59:03.241Z,13.49
2017-09-27T04:00:03.303Z,13.46
2017-09-27T04:01:56.314Z,13.54
2017-09-27T04:02:56.355Z,13.52
2017-09-27T04:04:49.338Z,13.46
2017-09-27T04:05:49.400Z,13.52
2017-09-27T04:07:42.410Z,13.37
2017-09-27T04:08:42.464Z,13.44
2017-09-27T04:10:35.444Z,13.52
2017-09-27T04:11:35.506Z,13.50
2017-09-27T04:13:28.514Z,13.42
2017-09-27T04:14:28.553Z,13.46
2017-09-27T04:16:21.564Z,13.53
2017-09-27T04:17:21.609Z,13.46
2017-09-27T04:19:14.619Z,13.47
2017-09-27T04:20:14.654Z,13.42
2017-09-27T04:22:07.660Z,13.46
2017-09-27T04:23:07.700Z,13.42
2017-09-27T04:25:00.691Z,13.39
2017-09-27T04:26:00.748Z,13.49
2017-09-27T04:27:53.760Z,13.44
2017-09-27T04:28:53.800Z,13.41
2017-09-27T04:30:46.800Z,13.46
2017-09-27T04:31:46.849Z,13.46
2017-09-27T04:33:39.870Z,13.47
2017-09-27T04:34:39.903Z,13.41
2017-09-27T04:36:32.912Z,13.49
2017-09-27T04:37:32.955Z,13.50
2017-09-27T04:39:25.946Z,13.42
2017-09-27T04:40:26.009Z,13.39
2017-09-27T04:42:19.035Z,13.41
2017-09-27T04:43:19.061Z,13.41
2017-09-27T04:45:12.050Z,13.42
2017-09-27T04:46:12.114Z,13.44
2017-09-27T04:48:05.147Z,13.42
2017-09-27T04:49:05.168Z,13.37
2017-09-27T04:50:58.164Z,13.39
2017-09-27T04:51:58.233Z,13.46
2017-09-27T04:53:51.260Z,13.44
2017-09-27T04:54:51.280Z,13.35
2017-09-27T04:56:44.326Z,13.25
2017-09-27T04:57:44.331Z,13.30
2017-09-27T04:59:37.336Z,13.25
2017-09-27T05:00:37.382Z,13.20
2017-09-27T05:02:30.438Z,13.27
2017-09-27T05:03:30.448Z,13.33
2017-09-27T05:05:23.429Z,13.25
2017-09-27T05:06:23.505Z,13.39
2017-09-27T05:08:16.493Z,13.30
2017-09-27T05:09:16.556Z,13.30
2017-09-27T05:11:09.529Z,13.23
2017-09-27T05:12:09.629Z,13.31
2017-09-27T05:14:02.593Z,13.16
2017-09-27T05:15:02.635Z,13.22
2017-09-27T05:16:55.641Z,13.20
2017-09-27T05:17:55.711Z,13.20
2017-09-27T05:19:48.675Z,13.19
2017-09-27T05:20:48.740Z,13.16
2017-09-27T05:22:41.752Z,13.23
2017-09-27T05:23:41.819Z,13.19
2017-09-27T05:25:34.804Z,13.20
2017-09-27T05:26:34.842Z,13.19
2017-09-27T05:28:27.853Z,13.25
2017-09-27T05:29:27.887Z,13.20
2017-09-27T05:31:20.875Z,13.28
2017-09-27T05:32:20.949Z,13.18
2017-09-27T05:34:13.953Z,13.20
2017-09-27T05:35:14.006Z,13.16
2017-09-27T05:37:07.018Z,13.28
2017-09-27T05:38:07.047Z,13.18
2017-09-27T05:40:00.033Z,13.12
2017-09-27T05:41:00.094Z,13.22
2017-09-27T05:42:53.120Z,13.12
2017-09-27T05:43:53.149Z,13.16
2017-09-27T05:45:46.131Z,13.20
2017-09-27T05:46:46.198Z,13.18
2017-09-27T05:48:39.216Z,13.16
2017-09-27T05:49:39.259Z,13.19
2017-09-27T05:51:32.227Z,13.16
2017-09-27T05:52:32.289Z,13.20
2017-09-27T05:54:25.295Z,13.25
2017-09-27T05:55:25.336Z,13.28
2017-09-27T05:57:18.349Z,13.30
2017-09-27T05:58:18.386Z,13.30
2017-09-27T06:00:11.391Z,13.28
2017-09-27T06:01:11.434Z,13.20
2017-09-27T06:03:04.449Z,13.16
2017-09-27T06:04:04.488Z,13.15
2017-09-27T06:05:57.474Z,13.18
2017-09-27T06:06:57.534Z,13.23
2017-09-27T06:08:50.546Z,13.35
2017-09-27T06:09:50.590Z,13.28
2017-09-27T06:11:43.573Z,13.33
2017-09-27T06:12:43.637Z,13.28
2017-09-27T06:14:36.652Z,13.25
2017-09-27T06:15:36.684Z,13.30
2017-09-27T06:17:29.715Z,13.27
2017-09-27T06:18:29.737Z,13.35
2017-09-27T06:20:22.725Z,13.42
2017-09-27T06:21:22.797Z,13.44
2017-09-27T06:23:15.800Z,13.46
2017-09-27T06:24:15.846Z,13.28
2017-09-27T06:26:08.830Z,13.50
2017-09-27T06:27:08.902Z,13.44
2017-09-27T06:29:01.919Z,13.46
2017-09-27T06:30:01.938Z,13.57
2017-09-27T06:31:54.925Z,13.54
2017-09-27T06:32:54.987Z,13.44
2017-09-27T06:34:47.997Z,13.54
2017-09-27T06:35:48.040Z,13.57
2017-09-27T06:37:41.084Z,13.59
2017-09-27T06:38:41.087Z,13.62
2017-09-27T06:40:34.079Z,13.75
2017-09-27T06:41:34.138Z,13.67
2017-09-27T06:43:27.150Z,13.70
2017-09-27T06:44:27.194Z,13.72
2017-09-27T06:46:20.205Z,13.74
2017-09-27T06:47:20.256Z,13.78
2017-09-27T06:49:13.318Z,13.93
2017-09-27T06:50:13.317Z,13.92
2017-09-27T06:52:06.308Z,13.86
2017-09-27T06:53:06.363Z,13.90
2017-09-27T06:54:59.385Z,13.99
2017-09-27T06:55:59.430Z,14.03
2017-09-27T06:57:52.466Z,13.95
2017-09-27T06:58:52.474Z,14.05
2017-09-27T07:00:45.493Z,14.10
2017-09-27T07:01:45.549Z,14.08
2017-09-27T07:03:38.550Z,14.18
2017-09-27T07:04:38.594Z,14.20
2017-09-27T07:06:31.608Z,14.15
2017-09-27T07:07:31.644Z,14.20
2017-09-27T07:09:24.659Z,14.28
2017-09-27T07:10:24.704Z,14.32
2017-09-27T07:12:17.692Z,14.48
2017-09-27T07:13:17.751Z,14.43
2017-09-27T07:15:10.800Z,14.48
2017-09-27T07:16:10.806Z,14.47
2017-09-27T07:18:03.833Z,14.41
2017-09-27T07:19:03.860Z,14.53
2017-09-27T07:20:56.852Z,14.51
2017-09-27T07:21:56.920Z,14.54
2017-09-27T07:23:49.944Z,14.54
2017-09-27T07:24:49.975Z,14.62
2017-09-27T07:26:42.961Z,14.65
2017-09-27T07:27:43.032Z,14.55
2017-09-27T07:29:36.058Z,14.58
2017-09-27T07:30:36.085Z,14.55
2017-09-27T07:32:29.075Z,14.84
2017-09-27T07:33:29.145Z,15.00
2017-09-27T07:35:22.154Z,14.99
2017-09-27T07:36:22.194Z,15.11
2017-09-27T07:38:15.211Z,15.40
2017-09-27T07:39:15.252Z,15.39
2017-09-27T07:41:08.249Z,15.43
2017-09-27T07:42:08.310Z,15.44
2017-09-27T07:44:01.347Z,15.80
2017-09-27T07:45:01.393Z,15.95
2017-09-27T07:46:54.893Z,16.36
2017-09-27T07:47:54.952Z,16.43
2017-09-27T07:49:47.969Z,17.63
2017-09-27T07:50:48.008Z,17.90
2017-09-27T07:52:41.047Z,17.20
2017-09-27T07:53:41.082Z,16.78
2017-09-27T07:55:34.084Z,16.58
2017-09-27T07:56:34.121Z,16.39
2017-09-27T07:58:27.151Z,16.01
2017-09-27T07:59:27.179Z,15.73
2017-09-27T08:01:20.182Z,15.72
2017-09-27T08:02:20.243Z,15.67
2017-09-27T08:04:13.258Z,15.65
2017-09-27T08:05:13.301Z,15.70
2017-09-27T08:07:06.295Z,15.61
2017-09-27T08:08:06.359Z,15.57
2017-09-27T08:09:59.375Z,15.28
2017-09-27T08:10:59.419Z,15.24
2017-09-27T08:12:52.419Z,15.14
2017-09-27T08:13:52.488Z,15.15
2017-09-27T08:15:45.499Z,15.21
2017-09-27T08:16:45.547Z,15.39
2017-09-27T08:18:38.559Z,15.47
2017-09-27T08:19:38.598Z,15.67
2017-09-27T08:21:31.605Z,15.59
2017-09-27T08:22:31.659Z,15.68
2017-09-27T08:24:24.704Z,15.94
2017-09-27T08:25:24.715Z,15.98
2017-09-27T08:27:17.706Z,16.04
2017-09-27T08:28:17.769Z,16.24
2017-09-27T08:30:10.813Z,16.57
2017-09-27T08:31:10.832Z,17.06
2017-09-27T08:33:03.837Z,17.04
2017-09-27T08:34:03.887Z,17.16
2017-09-27T08:35:56.910Z,17.49
2017-09-27T08:36:56.952Z,18.43
2017-09-27T08:38:50.017Z,18.20
2017-09-27T08:39:50.011Z,18.13
2017-09-27T08:41:43.013Z,18.92
2017-09-27T08:42:43.071Z,18.90
2017-09-27T08:44:36.666Z,18.80
2017-09-27T08:45:36.654Z,18.56
2017-09-27T08:47:29.668Z,19.85
2017-09-27T08:48:29.722Z,19.85
2017-09-27T08:50:22.729Z,19.45
2017-09-27T08:51:22.773Z,19.04
2017-09-27T08:53:15.783Z,18.74
2017-09-27T08:54:15.872Z,18.75
2017-09-27T08:56:08.894Z,18.95
2017-09-27T08:57:08.952Z,18.70
2017-09-27T08:59:01.999Z,18.88
2017-09-27T09:00:02.057Z,19.02
2017-09-27T09:01:55.006Z,19.31
2017-09-27T09:02:55.043Z,19.19
2017-09-27T09:04:48.133Z,19.37
2017-09-27T09:05:48.137Z,19.44
2017-09-27T09:07:41.096Z,19.27
2017-09-27T09:08:41.158Z,19.08
2017-09-27T09:10:34.177Z,19.07
2017-09-27T09:11:34.217Z,18.95
2017-09-27T09:13:27.259Z,18.81
2017-09-27T09:14:27.284Z,18.59
2017-09-27T09:16:20.342Z,18.75
2017-09-27T09:17:20.351Z,18.62
2017-09-27T09:19:13.371Z,18.65
2017-09-27T09:20:13.409Z,18.80
2017-09-27T09:22:06.417Z,18.60
2017-09-27T09:23:06.478Z,18.34
2017-09-27T09:24:59.502Z,18.58
2017-09-27T09:25:59.543Z,18.70
2017-09-27T09:27:52.544Z,18.66
2017-09-27T09:28:52.605Z,18.60
2017-09-27T09:30:45.621Z,18.34
2017-09-27T09:31:45.666Z,18.38
2017-09-27T09:33:38.679Z,18.04
2017-09-27T09:34:38.734Z,18.34
2017-09-27T09:36:31.749Z,18.08
2017-09-27T09:37:31.795Z,18.18
2017-09-27T09:39:24.810Z,18.35
2017-09-27T09:40:24.859Z,18.47
2017-09-27T09:42:17.847Z,18.56
2017-09-27T09:43:17.913Z,18.65
2017-09-27T09:45:10.927Z,18.59
2017-09-27T09:46:10.977Z,18.74
2017-09-27T09:48:03.965Z,18.80
2017-09-27T09:49:04.031Z,18.84
2017-09-27T09:50:57.047Z,18.89
2017-09-27T09:51:57.093Z,18.89
2017-09-27T09:53:50.088Z,18.96
2017-09-27T09:54:50.194Z,19.09
2017-09-27T09:56:43.177Z,19.09
2017-09-27T09:57:43.219Z,19.21
2017-09-27T09:59:36.244Z,19.29
2017-09-27T10:00:36.290Z,19.21
2017-09-27T10:02:29.286Z,18.88
2017-09-27T10:03:29.352Z,18.98
2017-09-27T10:05:22.373Z,18.81
2017-09-27T10:06:22.418Z,18.78
2017-09-27T10:08:15.427Z,19.04
2017-09-27T10:09:15.480Z,19.26
2017-09-27T10:11:08.502Z,18.95
2017-09-27T10:12:08.547Z,18.86
2017-09-27T10:14:01.541Z,18.92
2017-09-27T10:15:01.607Z,18.96
2017-09-27T10:16:54.629Z,19.11
2017-09-27T10:17:54.673Z,19.24
2017-09-27T10:19:47.689Z,19.22
2017-09-27T10:20:47.731Z,19.26
2017-09-27T10:22:40.729Z,19.39
2017-09-27T10:23:40.797Z,19.44
2017-09-27T10:25:33.805Z,19.54
2017-09-27T10:26:33.846Z,19.56
2017-09-27T10:28:26.840Z,19.47
2017-09-27T10:29:26.904Z,19.41
2017-09-27T10:31:19.922Z,19.51
2017-09-27T10:32:19.965Z,19.52
2017-09-27T10:34:12.960Z,19.40
2017-09-27T10:35:13.026Z,19.56
2017-09-27T10:37:06.043Z,19.64
2017-09-27T10:38:06.087Z,19.55
2017-09-27T10:39:59.100Z,19.79
2017-09-27T10:40:59.146Z,19.95
2017-09-27T10:42:52.148Z,19.73
2017-09-27T10:43:52.211Z,19.86
2017-09-27T10:45:45.229Z,19.79
2017-09-27T10:46:45.270Z,19.77
2017-09-27T10:48:38.273Z,19.70
2017-09-27T10:49:38.343Z,19.76
2017-09-27T10:51:31.356Z,19.96
2017-09-27T10:52:31.401Z,19.86
2017-09-27T10:54:24.399Z,19.89
2017-09-27T10:55:24.470Z,19.99
2017-09-27T10:57:17.496Z,20.06
2017-09-27T10:58:17.535Z,20.04
2017-09-27T11:00:10.549Z,20.10
2017-09-27T11:01:10.595Z,20.06
2017-09-27T11:03:03.587Z,20.22
2017-09-27T11:04:03.662Z,20.24
2017-09-27T11:05:56.673Z,20.19
2017-09-27T11:06:56.716Z,20.21
2017-09-27T11:08:49.711Z,20.37
2017-09-27T11:09:49.775Z,20.36
2017-09-27T11:11:46.195Z,20.36
2017-09-27T11:12:46.218Z,20.25
2017-09-27T11:14:36.197Z,20.44
2017-09-27T11:15:36.200Z,20.40
2017-09-27T11:17:29.120Z,20.41
2017-09-27T11:18:29.307Z,20.31
2017-09-27T11:20:22.159Z,20.43
2017-09-27T11:21:22.211Z,20.44
2017-09-27T11:23:15.200Z,20.51
2017-09-27T11:24:15.270Z,20.62
2017-09-27T11:26:08.296Z,20.47
2017-09-27T11:27:08.325Z,20.40
2017-09-27T11:29:01.322Z,20.59
2017-09-27T11:30:01.399Z,20.69
2017-09-27T11:31:54.402Z,20.58
2017-09-27T11:32:54.452Z,20.66
2017-09-27T11:34:47.448Z,20.70
2017-09-27T11:35:47.515Z,20.66
2017-09-27T11:37:40.536Z,20.75
2017-09-27T11:38:40.578Z,20.85
2017-09-27T11:40:33.597Z,20.74
2017-09-27T11:41:33.644Z,20.77
2017-09-27T11:43:26.636Z,20.66
2017-09-27T11:44:26.704Z,20.63
2017-09-27T11:46:19.741Z,20.78
2017-09-27T11:47:19.802Z,20.75
2017-09-27T11:49:12.787Z,20.92
2017-09-27T11:50:12.849Z,20.82
2017-09-27T11:52:05.868Z,21.03
2017-09-27T11:53:05.908Z,21.05
2017-09-27T11:54:58.906Z,21.03
2017-09-27T11:55:58.972Z,21.00
2017-09-27T11:57:51.991Z,20.87
2017-09-27T11:58:52.037Z,20.88
2017-09-27T12:00:45.053Z,20.67
2017-09-27T12:01:45.100Z,20.67
2017-09-27T12:03:38.093Z,20.77
2017-09-27T12:04:38.160Z,20.88
2017-09-27T12:06:31.174Z,21.09
2017-09-27T12:07:31.223Z,21.14
2017-09-27T12:09:24.235Z,21.20
2017-09-27T12:10:24.298Z,21.07
2017-09-27T12:12:17.311Z,20.99
2017-09-27T12:13:17.359Z,20.96
2017-09-27T12:15:10.352Z,20.78
2017-09-27T12:16:10.417Z,20.77
2017-09-27T12:18:03.461Z,20.62
2017-09-27T12:19:03.488Z,20.63
2017-09-27T12:20:56.506Z,20.72
2017-09-27T12:21:56.549Z,20.88
2017-09-27T12:23:50.058Z,20.97
2017-09-27T12:24:50.127Z,20.96
2017-09-27T12:26:43.141Z,21.00
2017-09-27T12:27:43.181Z,20.97
2017-09-27T12:29:36.188Z,21.02
2017-09-27T12:30:36.253Z,21.05
2017-09-27T12:32:29.291Z,21.02
2017-09-27T12:33:29.343Z,21.02
2017-09-27T12:35:22.334Z,20.97
2017-09-27T12:36:22.399Z,20.97
2017-09-27T12:38:15.416Z,20.75
2017-09-27T12:39:15.460Z,20.82
2017-09-27T12:41:08.480Z,21.00
2017-09-27T12:42:08.527Z,21.02
2017-09-27T12:44:01.525Z,21.20
2017-09-27T12:45:01.600Z,21.17
2017-09-27T12:46:54.611Z,21.24
2017-09-27T12:47:54.655Z,21.25
2017-09-27T12:49:47.715Z,21.37
2017-09-27T12:50:47.782Z,21.29
2017-09-27T12:52:40.801Z,21.55
2017-09-27T12:53:40.845Z,21.43
2017-09-27T12:55:33.842Z,21.50
2017-09-27T12:56:33.908Z,21.43
2017-09-27T12:58:26.927Z,21.36
2017-09-27T12:59:26.971Z,21.46
2017-09-27T13:01:19.989Z,21.27
2017-09-27T13:02:20.034Z,21.17
2017-09-27T13:04:13.034Z,21.05
2017-09-27T13:05:13.122Z,20.99
2017-09-27T13:07:06.127Z,20.90
2017-09-27T13:08:06.176Z,21.02
2017-09-27T13:09:59.170Z,20.97
2017-09-27T13:10:59.234Z,20.97
2017-09-27T13:12:52.276Z,20.96
2017-09-27T13:13:52.297Z,21.05
2017-09-27T13:15:45.309Z,20.90
2017-09-27T13:16:45.359Z,21.00
2017-09-27T13:18:38.378Z,20.93
2017-09-27T13:19:38.427Z,20.96
2017-09-27T13:21:31.451Z,21.00
2017-09-27T13:22:31.487Z,20.99
2017-09-27T13:24:25.980Z,20.95
2017-09-27T13:25:26.046Z,20.84
2017-09-27T13:27:19.069Z,20.82
2017-09-27T13:28:19.107Z,20.81
2017-09-27T13:30:12.101Z,20.67
2017-09-27T13:31:12.168Z,20.75
2017-09-27T13:33:05.187Z,20.72
2017-09-27T13:34:05.233Z,20.75
2017-09-27T13:35:58.229Z,20.69
2017-09-27T13:36:58.296Z,20.82
2017-09-27T13:38:51.368Z,20.88
2017-09-27T13:39:51.387Z,20.90
2017-09-27T13:41:44.380Z,20.97
2017-09-27T13:42:44.429Z,21.07
2017-09-27T13:44:37.426Z,21.21
2017-09-27T13:45:37.492Z,21.24
2017-09-27T13:47:30.513Z,21.14
2017-09-27T13:48:30.556Z,21.30
2017-09-27T13:50:23.590Z,21.43
2017-09-27T13:51:23.639Z,21.40
2017-09-27T13:53:16.644Z,21.54
2017-09-27T13:54:16.689Z,21.36
2017-09-27T13:56:09.686Z,21.46
2017-09-27T13:57:09.752Z,21.51
2017-09-27T13:59:02.785Z,21.48
2017-09-27T14:00:02.830Z,21.50
2017-09-27T14:01:55.836Z,21.30
2017-09-27T14:02:55.881Z,21.37
2017-09-27T14:04:48.882Z,21.39
2017-09-27T14:05:48.963Z,21.42
2017-09-27T14:07:41.981Z,21.39
2017-09-27T14:08:42.028Z,21.27
2017-09-27T14:10:35.032Z,21.27
2017-09-27T14:11:35.094Z,21.17
2017-09-27T14:13:28.114Z,21.11
2017-09-27T14:14:28.162Z,21.21
2017-09-27T14:16:21.155Z,21.24
2017-09-27T14:17:21.234Z,21.29
2017-09-27T14:19:14.275Z,21.33
2017-09-27T14:20:14.303Z,21.35
2017-09-27T14:22:07.311Z,21.30
2017-09-27T14:23:07.355Z,21.15
2017-09-27T14:25:00.399Z,21.33
2017-09-27T14:26:00.421Z,21.27
2017-09-27T14:27:53.461Z,21.36
2017-09-27T14:28:53.484Z,21.27
2017-09-27T14:30:46.481Z,21.24
2017-09-27T14:31:46.549Z,21.17
2017-09-27T14:33:39.565Z,21.07
2017-09-27T14:34:39.610Z,21.05
2017-09-27T14:36:32.608Z,21.11
2017-09-27T14:37:32.675Z,21.14
2017-09-27T14:39:25.692Z,21.00
2017-09-27T14:40:25.735Z,21.12
2017-09-27T14:42:18.776Z,21.12
2017-09-27T14:43:18.796Z,20.99
2017-09-27T14:45:11.793Z,21.05
2017-09-27T14:46:11.859Z,21.03
2017-09-27T14:48:04.878Z,21.00
2017-09-27T14:49:04.922Z,21.02
2017-09-27T14:50:57.920Z,20.93
2017-09-27T14:51:57.987Z,21.00
2017-09-27T14:53:51.003Z,20.87
2017-09-27T14:54:51.048Z,20.92
2017-09-27T14:56:44.042Z,20.75
2017-09-27T14:57:44.107Z,20.75
2017-09-27T14:59:37.124Z,20.77
2017-09-27T15:00:37.172Z,20.77
2017-09-27T15:02:30.189Z,20.74
2017-09-27T15:03:30.230Z,20.70
2017-09-27T15:05:23.238Z,20.70
2017-09-27T15:06:23.290Z,20.67
2017-09-27T15:08:16.305Z,20.72
2017-09-27T15:09:16.384Z,20.59
2017-09-27T15:11:09.352Z,20.55
2017-09-27T15:12:09.412Z,20.55
2017-09-27T15:14:02.434Z,20.56
2017-09-27T15:15:02.473Z,20.60
2017-09-27T15:16:55.467Z,20.60
2017-09-27T15:17:55.533Z,20.58
2017-09-27T15:19:48.548Z,20.44
2017-09-27T15:20:48.594Z,20.50
2017-09-27T15:22:41.645Z,20.48
2017-09-27T15:23:41.681Z,20.41
2017-09-27T15:25:34.670Z,20.36
2017-09-27T15:26:34.736Z,20.39
2017-09-27T15:28:27.757Z,20.34
2017-09-27T15:29:27.801Z,20.24
2017-09-27T15:31:20.795Z,20.28
2017-09-27T15:32:20.859Z,20.16
2017-09-27T15:34:13.884Z,20.21
2017-09-27T15:35:13.930Z,20.13
2017-09-27T15:37:06.946Z,20.09
2017-09-27T15:38:06.995Z,20.04
2017-09-27T15:40:00.019Z,20.07
2017-09-27T15:41:00.123Z,20.09
2017-09-27T15:42:53.077Z,20.07
2017-09-27T15:43:53.146Z,20.06
2017-09-27T15:45:46.117Z,20.04
2017-09-27T15:46:46.184Z,20.02
2017-09-27T15:48:39.202Z,20.09
2017-09-27T15:49:39.247Z,20.00
2017-09-27T15:51:32.246Z,20.03
2017-09-27T15:52:32.306Z,19.95
2017-09-27T15:54:25.339Z,20.02
2017-09-27T15:55:25.379Z,19.88
2017-09-27T15:57:18.369Z,19.95
2017-09-27T15:58:18.460Z,19.94
2017-09-27T16:00:11.457Z,19.88
2017-09-27T16:01:11.502Z,19.86
2017-09-27T16:03:04.523Z,19.91
2017-09-27T16:04:04.692Z,19.81
2017-09-27T16:05:57.566Z,19.62
2017-09-27T16:06:57.633Z,19.64
2017-09-27T16:08:50.654Z,19.56
2017-09-27T16:09:50.704Z,19.54
2017-09-27T16:11:43.691Z,19.56
2017-09-27T16:12:43.761Z,19.44
2017-09-27T16:14:36.788Z,19.40
2017-09-27T16:15:36.887Z,19.41
2017-09-27T16:17:29.827Z,19.36
2017-09-27T16:18:29.894Z,19.33
2017-09-27T16:20:22.914Z,19.36
2017-09-27T16:21:22.952Z,19.36
2017-09-27T16:23:15.976Z,19.21
2017-09-27T16:24:16.028Z,19.19
2017-09-27T16:26:09.013Z,19.15
2017-09-27T16:27:09.077Z,19.16
2017-09-27T16:29:02.098Z,19.07
2017-09-27T16:30:02.137Z,19.02
2017-09-27T16:31:55.143Z,18.96
2017-09-27T16:32:55.231Z,18.90
2017-09-27T16:34:48.227Z,18.86
2017-09-27T16:35:48.269Z,18.83
2017-09-27T16:37:41.261Z,18.88
2017-09-27T16:38:41.332Z,18.81
2017-09-27T16:40:34.342Z,18.75
2017-09-27T16:41:34.388Z,18.66
2017-09-27T16:43:27.399Z,18.63
2017-09-27T16:44:27.448Z,18.66
2017-09-27T16:46:20.438Z,18.66
2017-09-27T16:47:20.501Z,18.60
2017-09-27T16:49:13.518Z,18.53
2017-09-27T16:50:13.565Z,18.49
2017-09-27T16:52:07.064Z,18.52
2017-09-27T16:53:07.130Z,18.43
2017-09-27T16:55:00.144Z,18.47
2017-09-27T16:56:00.188Z,18.41
2017-09-27T16:57:53.178Z,18.40
2017-09-27T16:58:53.257Z,18.26
2017-09-27T17:00:46.254Z,18.25
2017-09-27T17:01:46.299Z,18.35
2017-09-27T17:03:39.335Z,18.37
2017-09-27T17:04:39.380Z,18.22
2017-09-27T17:06:32.425Z,18.25
2017-09-27T17:07:32.446Z,18.33
2017-09-27T17:09:25.456Z,18.23
2017-09-27T17:10:25.710Z,18.11
2017-09-27T17:12:18.499Z,18.05
2017-09-27T17:13:18.558Z,18.04
2017-09-27T17:15:11.579Z,18.04
2017-09-27T17:16:11.622Z,18.05
2017-09-27T17:18:04.631Z,17.89
2017-09-27T17:19:04.686Z,18.01
2017-09-27T17:20:57.709Z,17.97
2017-09-27T17:21:57.753Z,17.98
2017-09-27T17:23:50.836Z,17.90
2017-09-27T17:24:50.802Z,17.86
2017-09-27T17:26:43.816Z,17.86
2017-09-27T17:27:43.860Z,17.83
2017-09-27T17:29:36.875Z,17.78
2017-09-27T17:30:36.918Z,17.80
2017-09-27T17:32:29.915Z,17.80
2017-09-27T17:33:29.973Z,17.65
2017-09-27T17:35:22.986Z,17.64
2017-09-27T17:36:23.032Z,17.63
2017-09-27T17:38:16.023Z,17.59
2017-09-27T17:39:16.085Z,17.42
2017-09-27T17:41:09.108Z,17.39
2017-09-27T17:42:09.158Z,17.48
2017-09-27T17:44:02.169Z,17.42
2017-09-27T17:45:02.213Z,17.44
2017-09-27T17:46:55.209Z,17.31
2017-09-27T17:47:55.274Z,17.31
2017-09-27T17:49:48.289Z,17.33
2017-09-27T17:50:48.337Z,17.33
2017-09-27T17:52:41.840Z,17.33
2017-09-27T17:53:41.900Z,17.30
2017-09-27T17:55:34.922Z,17.22
2017-09-27T17:56:34.963Z,17.26
2017-09-27T17:58:27.957Z,17.22
2017-09-27T17:59:28.019Z,17.20
2017-09-27T18:01:21.032Z,17.16
2017-09-27T18:02:21.104Z,17.19
2017-09-27T18:04:14.089Z,17.16
2017-09-27T18:05:14.131Z,17.14
2017-09-27T18:07:07.130Z,17.14
2017-09-27T18:08:07.191Z,17.08
2017-09-27T18:10:00.206Z,16.97
2017-09-27T18:11:00.248Z,16.99
2017-09-27T18:12:53.242Z,16.96
2017-09-27T18:13:53.307Z,16.90
2017-09-27T18:15:46.325Z,16.81
2017-09-27T18:16:46.361Z,16.83
2017-09-27T18:18:39.353Z,16.71
2017-09-27T18:19:39.416Z,16.75
2017-09-27T18:21:32.429Z,16.72
2017-09-27T18:22:32.474Z,16.75
2017-09-27T18:24:25.516Z,16.66
2017-09-27T18:25:25.559Z,16.64
2017-09-27T18:27:18.807Z,16.60
2017-09-27T18:28:18.705Z,16.58
2017-09-27T18:30:11.750Z,16.43
2017-09-27T18:31:11.808Z,16.36
2017-09-27T18:33:04.795Z,16.46
2017-09-27T18:34:04.844Z,16.38